Aeroporto :
LOGIN :

Iscrizione | Disclaimer

   EN    FR    IT 

 










Sommario :    VFR   VFR Marginale   IFR   IFR Intensivo   IFR Molto Intensivo
Visibilità : 
Base nubi : 
>= 8 km
>= 3000ft
5 / 8 km
1000 / 3000 ft
1500m / 5 km
500 / 1000 ft
800 / 1500m
200 / 500 ft
< 800m
< 200 ft
Simboli :   Temporali  Nebbia  Neve Forte  Precipitazioni Forti  Vento > 20 kt
SIGMETs :   Varie  Temporali  Ghiacco  Turbolenza  Onda orograficha  Ceneri Vulcaniche







- Altitudine del aeroporto : 290 ft
- Codice IATA : ACI
- Carte del aeroporto


EGJA - Alderney

ULTIMO METAR :
  • 261620Z 23021KT 9999 FEW020 SCT040 11/06 Q1013

METARs OBSOLETI :
  • 261550Z 23017KT 9999 FEW015 11/07 Q1013
  • 261520Z 24013KT 9999 FEW015 12/09 Q1014
  • 261450Z 24013KT 9999 FEW015 12/09 Q1014
  • 261420Z 25015KT 9999 FEW015 12/09 Q1013
  • 261350Z 25014KT 9999 FEW015 SCT035 12/09 Q1014

TAF TAF EGJA
Valido dal 26 a 15 ore il 26 a 19 ore UTC


261402Z 2615/2619 25019KT 9999 SCT025
PROB30
TEMPO 2617/2619 7000 RA BKN008
Nessun NOTAM noto per questo aeroporto.



MetMap, La meteo Aeronautica in un colpo d'occhio ! - Copyright ORBIFLY Dicembre 2007 - Disclaimer

ORBIFLY MET'MAP TEAM :

Programmazione e sviluppo : Alexandra Zaïnal
Concezione e sviluppo : Baudouin d'Aumeries
Co-Programmazione e sviluppo : Marc-Olivier Méhu
Supporto tecnico e logistico : Manuel Goepfert
Aiuto per la traduzione : Arnaldo La Scala

Contatto : metmap@orbifly.com




FONTI E CREDITI :

   NOAA